Sunday, December 21, 2014
02:40 UTC
  |  Log In   |  Register Free
Airport Search:

Lincoln Airport
(KLNK)

FAA data valid effective November 13, 2014 - January 08, 2015 (unless otherwise noted).

 
 
 
 
 
 
 
 
 
 
 
 
 
 

Current Aviation Weather for Lincoln Airport (KLNK)

The most recent METAR observation for KLNK was updated at: 2116
METAR Summary (Translated METAR)
KLNK
182054Z 17003KT 7SM OVC015 00/M03 A3020 RMK AO2 SLP239 T00001033 56013
KAHQ
182055Z AUTO 17004KT 10SM OVC013 00/M03 A3019 RMK AO2 T10031033
(24.6 nm NE from KLNK)
KBIE
182055Z AUTO 00000KT 10SM OVC012 00/M02 A3017 RMK AO2 60002 T10041025
(33 nm SE from KLNK)
TAF Summary (Translated TAF)
KLNK
202206Z 2022/2118 17006KT 6SM BR OVC010 TEMPO 2022/2101 3SM BR OVC007 FM210400 20006KT 4SM BR OVC009 TEMPO 2106/2110 2SM BR OVC004
  Airport Weather Conditions for KLNK

 Current Weather at LNK
35° F
Fog/Mist
South winds at 11.5 mph
LNK NOAA Radar

Pressure: 30.05 in
Humidity: 93%
Wind: South at 11.5 MPH (10 KT)
Dew Point: 33.1°F
Visibility: 4.00 mi


Airport Weather Forecast for KLNK

Translated METAR and TAF for KLNK
Translated METAR for KLNK (0241 UTC 21 December 2014)
found at http://aviationweather.gov/adds/metars/
 
METAR text: KLNK 210154Z 16010KT 4SM BR OVC004 02/01 A3005 RMK AO2 SLP186 T00170006
Conditions at: KLNK (LINCOLN , NE, US) observed 0154 UTC 21 December 2014
Temperature: 1.7°C (35°F)
Dewpoint: 0.6°C (33°F) [RH = 92%]
Pressure (altimeter): 30.05 inches Hg (1017.7 mb)
[Sea-level pressure: 1018.6 mb]
Winds: from the SSE (160 degrees) at 12 MPH (10 knots; 5.2 m/s)
Visibility: 4 miles (6 km)
Ceiling: 400 feet AGL
Clouds: overcast cloud deck at 400 feet AGL
Weather: BR  (mist)
Translated TAF for KLNK
Forecast for: KLNK (LINCOLN , NE, US)
TAF Text: KLNK 202323Z 2100/2124 17006KT 4SM BR OVC010
Forecast period: 0000 to 0200 UTC 21 December 2014
Forecast type: FROM: standard forecast or significant change
Winds: from the S (170 degrees) at 7 MPH (6 knots; 3.1 m/s)
Visibility: 4 miles (6 km)
Ceiling: 1000 feet AGL
Clouds: overcast cloud deck at 1000 feet AGL
Weather: BR  (mist)
TAF Text: FM210200 20006KT 2SM BR OVC007
Forecast period: 0200 to 1500 UTC 21 December 2014
Forecast type: FROM: standard forecast or significant change
Winds: from the SSW (200 degrees) at 7 MPH (6 knots; 3.1 m/s)
Visibility: 2.00 miles (3.22 km)
Ceiling: 700 feet AGL
Clouds: overcast cloud deck at 700 feet AGL
Weather: BR  (mist)
TAF Text: TEMPO 2104/2106 3/4SM BR OVC004
Forecast period: 0400 to 0600 UTC 21 December 2014
Forecast type: TEMPORARY: The following changes expected for less than half the time period
Visibility: 0.75 miles (1.21 km)
Ceiling: 400 feet AGL
Clouds: overcast cloud deck at 400 feet AGL
Weather: BR  (mist)
TAF Text: FM211500 19011KT 5SM BR OVC012
Forecast period: 1500 to 1700 UTC 21 December 2014
Forecast type: FROM: standard forecast or significant change
Winds: from the S (190 degrees) at 13 MPH (11 knots; 5.7 m/s)
Visibility: 5 miles (8 km)
Ceiling: 1200 feet AGL
Clouds: overcast cloud deck at 1200 feet AGL
Weather: BR  (mist)
TAF Text: FM211700 19015G21KT P6SM OVC015
Forecast period: 1700 UTC 21 December 2014 to 0000 UTC 22 December 2014
Forecast type: FROM: standard forecast or significant change
Winds: from the S (190 degrees) at 17 MPH (15 knots; 7.8 m/s)
gusting to 24 MPH (21 knots; 10.9 m/s)
Visibility: 6 or more miles (10+ km)
Ceiling: 1500 feet AGL
Clouds: overcast cloud deck at 1500 feet AGL
Weather: no significant weather forecast for this period

Find All Airport Services Find A Hotel Find A Rental Car Find A Golf Course Find A Restaurant $100 Hamburger



FBO's on the Field
FBO Company Facility Photos Services Transportation Aviation Fuel Prices: Prices include tax
Catering Weather Repair Courtesy Rental Type 100LL JetA JetA+ MOGAS 8087
 
Duncan Aviation

This FBO has not yet been rated
FS:Avfuel
Last Updated: Dec-16
Login to update fuel prices
SS:
Contact Duncan AviationMore FBO Information
 
Silverhawk Aviation

This FBO has not yet been rated
FS:Phillips 66
Last Updated: Dec-16
Login to update fuel prices
SS:
Contact Silverhawk AviationMore FBO Information
 
Add another FBO Facility Photos Catering Weather Repair Courtesy Rental Type 100LL JetA JetA+ MOGAS 8087
Services Transportation Aviation Fuel Prices: Prices include tax


model-print
model-print
model-print
model-print